Time;durP1;ratioP1;P1;durP2;ratioP2;P2;SDS_P1;SDS_P2;PMS_P1;PMS_P2;Temp;Humidity;BMP_temperature;BMP_pressure;BME280_temperature;BME280_humidity;BME280_pressure;Samples;Min_cycle;Max_cycle;Signal;HPM_P1;HPM_P2
2022/05/20 00:02:06;;;;;;;4.90;3.05;;;;;;;;;;5067999;28;20024;-84
2022/05/20 00:04:34;;;;;;;9.63;3.30;;;;;;;;;;5069603;28;20432;-84
2022/05/20 00:06:59;;;;;;;7.50;3.25;;;;;;;;;;5081978;28;20047;-85
2022/05/20 00:09:25;;;;;;;5.88;3.35;;;;;;;;;;5066399;28;22325;-84
2022/05/20 00:11:50;;;;;;;7.88;3.60;;;;;;;;;;5065066;28;20052;-85
2022/05/20 00:14:16;;;;;;;5.20;3.22;;;;;;;;;;5068063;28;20029;-86
2022/05/20 00:16:41;;;;;;;5.32;3.30;;;;;;;;;;5073359;28;20040;-86
2022/05/20 00:19:09;;;;;;;4.75;3.17;;;;;;;;;;5070902;28;20155;-85
2022/05/20 00:21:35;;;;;;;4.75;3.60;;;;;;;;;;5049292;28;20032;-84
2022/05/20 00:24:01;;;;;;;14.65;4.20;;;;;;;;;;5070310;28;20025;-83
2022/05/20 00:26:27;;;;;;;9.32;3.53;;;;;;;;;;5074141;28;20363;-87
2022/05/20 00:28:53;;;;;;;5.45;3.33;;;;;;;;;;5074072;28;20032;-84
2022/05/20 00:31:21;;;;;;;9.40;3.28;;;;;;;;;;5052249;28;20036;-85
2022/05/20 00:33:47;;;;;;;5.32;3.17;;;;;;;;;;5075906;28;20103;-84
2022/05/20 00:36:12;;;;;;;6.35;3.85;;;;;;;;;;5076778;28;20070;-85
2022/05/20 00:38:38;;;;;;;6.30;3.45;;;;;;;;;;5077238;28;20032;-86
2022/05/20 00:41:04;;;;;;;7.80;3.92;;;;;;;;;;5073586;28;20029;-86
2022/05/20 00:43:33;;;;;;;5.35;3.50;;;;;;;;;;5079643;28;20031;-84
2022/05/20 00:46:04;;;;;;;6.22;3.28;;;;;;;;;;5074438;28;20083;-84
2022/05/20 00:48:30;;;;;;;;;;;;;;;;;;5084664;28;20477;-84
2022/05/20 00:51:01;;;;;;;5.25;3.33;;;;;;;;;;5059371;28;19920;-84
2022/05/20 00:53:33;;;;;;;8.38;3.90;;;;;;;;;;5079112;28;20036;-84
2022/05/20 00:56:00;;;;;;;6.78;3.67;;;;;;;;;;5079066;28;20033;-85
2022/05/20 00:58:27;;;;;;;7.22;3.95;;;;;;;;;;5079483;28;20074;-83
2022/05/20 01:00:55;;;;;;;5.43;3.45;;;;;;;;;;5077753;28;20025;-83
2022/05/20 01:03:25;;;;;;;7.60;3.92;;;;;;;;;;5088373;28;20262;-83
2022/05/20 01:05:53;;;;;;;5.13;3.75;;;;;;;;;;5077966;28;20044;-84
2022/05/20 01:08:24;;;;;;;9.13;4.00;;;;;;;;;;5077604;28;20033;-84
2022/05/20 01:10:50;;;;;;;6.40;3.55;;;;;;;;;;5079056;28;20079;-83
2022/05/20 01:13:18;;;;;;;6.07;3.83;;;;;;;;;;5085482;28;20126;-84
2022/05/20 01:15:44;;;;;;;10.45;4.00;;;;;;;;;;5073085;28;20013;-83
2022/05/20 01:18:11;;;;;;;12.18;4.05;;;;;;;;;;5065965;28;20055;-85
2022/05/20 01:20:40;;;;;;;6.35;3.60;;;;;;;;;;5074836;28;20055;-83
2022/05/20 01:23:13;;;;;;;8.75;4.40;;;;;;;;;;5076990;28;20099;-84
2022/05/20 01:25:42;;;;;;;4.95;3.50;;;;;;;;;;5073207;28;20033;-84
2022/05/20 01:28:08;;;;;;;9.95;4.15;;;;;;;;;;5077778;28;20024;-87
2022/05/20 01:30:34;;;;;;;6.18;3.63;;;;;;;;;;5072423;28;20024;-84
2022/05/20 01:33:07;;;;;;;9.55;3.72;;;;;;;;;;5055724;28;20029;-85
2022/05/20 01:35:40;;;;;;;6.40;3.97;;;;;;;;;;5072564;28;20478;-87
2022/05/20 01:38:08;;;;;;;10.90;3.72;;;;;;;;;;5080383;28;20584;-85
2022/05/20 01:40:49;;;;;;;7.97;4.00;;;;;;;;;;5084760;28;20024;-85
2022/05/20 01:43:56;;;;;;;7.03;4.07;;;;;;;;;;5075639;28;20028;-86
2022/05/20 01:46:25;;;;;;;9.40;4.03;;;;;;;;;;5065360;28;20047;-86
2022/05/20 01:49:26;;;;;;;6.05;4.28;;;;;;;;;;5080052;28;20020;-85
2022/05/20 01:52:39;;;;;;;7.82;4.50;;;;;;;;;;5025435;28;20033;-86
2022/05/20 01:55:36;;;;;;;10.68;4.90;;;;;;;;;;5071357;28;20501;-85
2022/05/20 01:58:10;;;;;;;6.13;3.70;;;;;;;;;;5068757;28;20025;-85
2022/05/20 02:00:37;;;;;;;5.85;3.70;;;;;;;;;;5056129;28;20032;-85
2022/05/20 02:03:17;;;;;;;8.68;4.60;;;;;;;;;;5092180;28;20393;-85
2022/05/20 02:05:57;;;;;;;6.57;4.30;;;;;;;;;;5087710;28;20032;-84
2022/05/20 02:08:33;;;;;;;6.97;4.07;;;;;;;;;;5080524;28;20390;-85
2022/05/20 02:11:06;;;;;;;7.35;3.92;;;;;;;;;;5077251;28;20067;-86
2022/05/20 02:13:34;;;;;;;7.55;4.28;;;;;;;;;;5064507;28;20029;-86
2022/05/20 02:16:03;;;;;;;7.13;4.80;;;;;;;;;;5066455;28;20024;-84
2022/05/20 02:18:35;;;;;;;7.38;4.55;;;;;;;;;;5076320;28;20135;-85
2022/05/20 02:21:08;;;;;;;6.05;3.80;;;;;;;;;;5077945;28;20673;-83
2022/05/20 02:23:48;;;;;;;8.90;4.60;;;;;;;;;;5061072;28;20036;-85
2022/05/20 02:26:18;;;;;;;11.07;4.43;;;;;;;;;;5068198;28;20024;-88
2022/05/20 02:28:47;;;;;;;6.82;4.65;;;;;;;;;;5075901;28;20030;-88
2022/05/20 02:31:23;;;;;;;8.95;4.57;;;;;;;;;;5074551;28;20039;-85
2022/05/20 02:33:49;;;;;;;7.15;4.85;;;;;;;;;;5051849;28;20020;-83
2022/05/20 02:36:23;;;;;;;7.78;4.70;;;;;;;;;;5069632;28;20031;-86
2022/05/20 02:38:48;;;;;;;7.75;4.88;;;;;;;;;;5066928;28;20044;-84
2022/05/20 02:41:14;;;;;;;7.82;4.63;;;;;;;;;;5088422;28;20390;-83
2022/05/20 02:43:39;;;;;;;8.35;4.05;;;;;;;;;;5069335;28;20016;-84
2022/05/20 02:46:05;;;;;;;6.85;4.40;;;;;;;;;;5076385;28;20036;-85
2022/05/20 02:48:31;;;;;;;5.43;4.07;;;;;;;;;;5082573;28;20048;-85
2022/05/20 02:50:58;;;;;;;7.80;4.50;;;;;;;;;;5071984;28;20067;-84
2022/05/20 02:53:23;;;;;;;10.23;4.50;;;;;;;;;;5071610;28;20047;-84
2022/05/20 02:55:48;;;;;;;9.48;4.90;;;;;;;;;;5072297;28;20470;-84
2022/05/20 03:06:32;;;;;;;10.82;5.22;;;;;;;;;;5081396;28;20044;-87
2022/05/20 03:08:58;;;;;;;6.47;4.80;;;;;;;;;;5079292;28;20033;-84
2022/05/20 03:11:23;;;;;;;13.30;5.13;;;;;;;;;;5075104;28;20020;-84
2022/05/20 03:13:49;;;;;;;9.48;5.18;;;;;;;;;;5082108;28;20090;-84
2022/05/20 03:16:14;;;;;;;8.07;4.82;;;;;;;;;;5074691;28;20024;-85
2022/05/20 03:18:39;;;;;;;9.95;5.15;;;;;;;;;;5077639;28;20020;-84
2022/05/20 03:21:05;;;;;;;7.22;5.03;;;;;;;;;;5078270;28;20020;-85
2022/05/20 03:23:30;;;;;;;8.48;5.65;;;;;;;;;;5065148;28;20118;-86
2022/05/20 03:25:55;;;;;;;11.27;4.72;;;;;;;;;;5075249;28;20079;-84
2022/05/20 03:28:21;;;;;;;8.18;4.63;;;;;;;;;;5076540;28;20546;-85
2022/05/20 03:30:46;;;;;;;8.68;4.80;;;;;;;;;;5071941;28;20017;-85
2022/05/20 03:33:11;;;;;;;12.05;5.63;;;;;;;;;;5076316;28;20024;-85
2022/05/20 03:35:37;;;;;;;8.43;4.60;;;;;;;;;;5076419;28;20105;-88
2022/05/20 03:38:02;;;;;;;8.73;4.65;;;;;;;;;;5069902;28;20028;-85
2022/05/20 03:40:28;;;;;;;7.18;4.97;;;;;;;;;;5079137;28;20027;-86
2022/05/20 03:42:53;;;;;;;9.52;4.78;;;;;;;;;;5075014;28;20051;-87
2022/05/20 03:45:18;;;;;;;8.23;4.82;;;;;;;;;;5073170;28;20517;-85
2022/05/20 03:47:44;;;;;;;13.88;5.55;;;;;;;;;;5072314;28;20482;-86
2022/05/20 03:50:10;;;;;;;7.60;5.00;;;;;;;;;;5054663;28;20028;-87
2022/05/20 03:52:36;;;;;;;9.25;5.30;;;;;;;;;;5082192;28;20032;-83
2022/05/20 03:55:02;;;;;;;7.88;4.78;;;;;;;;;;5078891;28;20103;-85
2022/05/20 03:57:28;;;;;;;9.55;5.35;;;;;;;;;;5073646;28;20054;-87
2022/05/20 03:59:53;;;;;;;8.23;5.10;;;;;;;;;;5067871;28;20454;-85
2022/05/20 04:02:19;;;;;;;8.95;5.28;;;;;;;;;;5054264;28;20505;-86
2022/05/20 04:04:48;;;;;;;14.15;5.30;;;;;;;;;;5071893;28;20364;-85
2022/05/20 04:07:17;;;;;;;9.35;4.93;;;;;;;;;;5072968;28;20043;-85
2022/05/20 04:09:43;;;;;;;8.20;5.22;;;;;;;;;;5079159;28;20087;-85
2022/05/20 04:12:16;;;;;;;14.43;9.23;;;;;;;;;;5076738;28;20098;-86
2022/05/20 04:14:41;;;;;;;8.85;4.72;;;;;;;;;;5063907;28;20120;-85
2022/05/20 04:17:07;;;;;;;7.70;4.95;;;;;;;;;;5056648;28;20056;-82
2022/05/20 04:19:34;;;;;;;14.57;5.50;;;;;;;;;;5074003;28;20469;-83
2022/05/20 04:22:08;;;;;;;10.25;4.95;;;;;;;;;;5079459;28;20028;-84
2022/05/20 04:24:34;;;;;;;9.02;5.50;;;;;;;;;;5071925;28;20020;-85
2022/05/20 04:26:59;;;;;;;9.00;4.82;;;;;;;;;;5074293;28;20024;-84
2022/05/20 04:29:25;;;;;;;9.30;5.53;;;;;;;;;;5071479;28;20107;-86
2022/05/20 04:31:51;;;;;;;8.02;5.10;;;;;;;;;;5054743;28;20032;-84
2022/05/20 04:34:17;;;;;;;6.55;4.68;;;;;;;;;;5074287;28;20050;-84
2022/05/20 04:36:43;;;;;;;8.13;5.00;;;;;;;;;;5073007;28;20033;-84
2022/05/20 04:39:08;;;;;;;8.50;5.40;;;;;;;;;;5078327;28;20044;-86
2022/05/20 04:47:05;;;;;;;8.57;4.53;;;;;;;;;;5079428;28;20071;-84
2022/05/20 04:49:32;;;;;;;11.77;5.82;;;;;;;;;;5088935;28;20477;-85
2022/05/20 04:52:00;;;;;;;10.07;5.20;;;;;;;;;;5089955;28;20035;-87
2022/05/20 04:57:21;;;;;;;9.73;5.68;;;;;;;;;;5085699;28;20129;-85
2022/05/20 04:59:47;;;;;;;10.38;5.95;;;;;;;;;;5067487;28;20029;-84
2022/05/20 05:02:13;;;;;;;10.35;5.78;;;;;;;;;;5084661;28;20028;-86
2022/05/20 05:04:38;;;;;;;7.97;5.05;;;;;;;;;;5076118;28;20021;-84
2022/05/20 05:07:04;;;;;;;9.82;5.38;;;;;;;;;;5070339;28;20111;-85
2022/05/20 05:09:29;;;;;;;8.55;5.22;;;;;;;;;;5069482;28;20051;-86
2022/05/20 05:11:55;;;;;;;11.02;5.60;;;;;;;;;;5069288;28;20485;-88
2022/05/20 05:14:21;;;;;;;8.25;4.80;;;;;;;;;;5062707;28;20027;-85
2022/05/20 05:16:46;;;;;;;13.38;5.45;;;;;;;;;;5088169;28;20024;-85
2022/05/20 05:19:14;;;;;;;10.48;5.82;;;;;;;;;;5089974;28;20028;-84
2022/05/20 05:21:40;;;;;;;9.07;5.68;;;;;;;;;;5062290;28;20063;-85
2022/05/20 05:24:06;;;;;;;9.07;4.82;;;;;;;;;;5079444;28;20028;-84
2022/05/20 05:26:34;;;;;;;10.75;5.47;;;;;;;;;;5080638;28;20540;-86
2022/05/20 05:29:00;;;;;;;8.65;5.05;;;;;;;;;;5061741;28;20056;-82
2022/05/20 05:31:26;;;;;;;11.63;5.57;;;;;;;;;;5079560;28;20024;-82
2022/05/20 05:33:53;;;;;;;14.80;5.60;;;;;;;;;;5080818;28;20043;-84
2022/05/20 05:36:19;;;;;;;12.13;4.78;;;;;;;;;;5080135;28;20024;-85
2022/05/20 05:38:46;;;;;;;13.13;5.85;;;;;;;;;;5080418;28;20020;-84
2022/05/20 05:41:12;;;;;;;12.73;4.70;;;;;;;;;;5082718;28;20024;-83
2022/05/20 05:43:37;;;;;;;8.95;4.93;;;;;;;;;;5086831;28;20030;-86
2022/05/20 05:46:04;;;;;;;13.30;5.15;;;;;;;;;;5085960;28;20119;-86
2022/05/20 05:48:30;;;;;;;8.18;4.45;;;;;;;;;;5096538;28;20058;-85
2022/05/20 05:50:56;;;;;;;9.20;4.70;;;;;;;;;;5078178;28;20024;-85
2022/05/20 05:53:24;;;;;;;6.15;4.40;;;;;;;;;;5060195;28;20039;-84
2022/05/20 05:56:00;;;;;;;10.75;4.25;;;;;;;;;;5078194;28;20058;-82
2022/05/20 05:58:27;;;;;;;10.57;4.30;;;;;;;;;;5075768;28;20024;-84
2022/05/20 06:00:54;;;;;;;7.82;3.90;;;;;;;;;;5076174;28;20111;-83
2022/05/20 06:03:19;;;;;;;7.75;4.30;;;;;;;;;;5075497;28;20032;-82
2022/05/20 06:05:45;;;;;;;11.43;3.97;;;;;;;;;;5066389;28;20024;-83
2022/05/20 06:08:11;;;;;;;10.02;3.85;;;;;;;;;;5077439;28;20024;-82
2022/05/20 06:10:36;;;;;;;10.27;4.10;;;;;;;;;;5075911;28;20432;-83
2022/05/20 06:13:02;;;;;;;8.02;3.67;;;;;;;;;;5057512;28;20020;-82
2022/05/20 06:15:28;;;;;;;9.07;4.32;;;;;;;;;;5074821;28;20520;-81
2022/05/20 06:17:55;;;;;;;9.15;4.18;;;;;;;;;;5074828;28;20544;-82
2022/05/20 06:20:23;;;;;;;7.55;3.90;;;;;;;;;;5092251;28;20504;-82
2022/05/20 06:22:49;;;;;;;9.45;3.90;;;;;;;;;;5078781;28;20081;-85
2022/05/20 06:25:16;;;;;;;6.40;4.20;;;;;;;;;;5096353;28;20024;-85
2022/05/20 06:27:43;;;;;;;14.88;3.95;;;;;;;;;;5078318;28;20091;-84
2022/05/20 06:30:10;;;;;;;7.00;3.60;;;;;;;;;;5096672;28;20027;-84
2022/05/20 06:32:36;;;;;;;7.40;3.65;;;;;;;;;;5095344;28;20020;-84
2022/05/20 06:40:44;;;;;;;7.55;3.83;;;;;;;;;;5056087;28;20509;-86
2022/05/20 06:43:15;;;;;;;5.38;3.70;;;;;;;;;;5055901;28;20036;-86
2022/05/20 06:45:43;;;;;;;6.25;3.88;;;;;;;;;;5079854;28;20028;-84
2022/05/20 06:48:08;;;;;;;9.57;3.47;;;;;;;;;;5079720;28;20056;-86
2022/05/20 06:50:37;;;;;;;5.43;3.35;;;;;;;;;;5074725;28;20077;-86
2022/05/20 06:53:03;;;;;;;6.05;3.42;;;;;;;;;;5073433;28;20042;-85
2022/05/20 06:55:28;;;;;;;10.25;3.50;;;;;;;;;;5098073;28;20468;-86
2022/05/20 06:57:54;;;;;;;5.93;3.35;;;;;;;;;;5085399;28;20029;-86
2022/05/20 07:00:19;;;;;;;6.32;3.35;;;;;;;;;;5068695;28;20020;-85
2022/05/20 07:02:44;;;;;;;10.20;3.33;;;;;;;;;;5076051;28;20023;-84
2022/05/20 07:05:11;;;;;;;4.25;3.45;;;;;;;;;;5090300;28;20020;-85
2022/05/20 07:07:38;;;;;;;8.45;3.20;;;;;;;;;;5075562;28;20046;-88
2022/05/20 07:10:04;;;;;;;5.75;3.47;;;;;;;;;;5080885;28;20046;-85
2022/05/20 07:12:30;;;;;;;7.60;3.40;;;;;;;;;;5078517;28;20389;-86
2022/05/20 07:14:55;;;;;;;7.13;3.92;;;;;;;;;;5089241;28;20039;-84
2022/05/20 07:17:22;;;;;;;13.38;3.70;;;;;;;;;;5066742;28;20021;-87
2022/05/20 07:19:50;;;;;;;7.63;3.40;;;;;;;;;;5076659;28;20108;-87
2022/05/20 07:22:15;;;;;;;5.75;3.10;;;;;;;;;;5079745;28;20055;-88
2022/05/20 07:24:43;;;;;;;3.70;2.47;;;;;;;;;;5080818;28;20466;-84
2022/05/20 07:27:09;;;;;;;6.65;2.70;;;;;;;;;;5079058;28;20042;-85
2022/05/20 07:29:34;;;;;;;4.82;2.63;;;;;;;;;;5060754;28;20058;-85
2022/05/20 07:32:00;;;;;;;6.45;2.53;;;;;;;;;;5075247;28;20032;-88
2022/05/20 07:34:26;;;;;;;2.72;2.20;;;;;;;;;;5085133;28;20028;-84
2022/05/20 07:36:51;;;;;;;2.40;2.13;;;;;;;;;;5081260;28;20055;-84
2022/05/20 07:39:16;;;;;;;10.18;2.40;;;;;;;;;;5075370;28;20052;-84
2022/05/20 07:41:42;;;;;;;3.72;2.75;;;;;;;;;;5075225;28;20074;-84
2022/05/20 07:44:07;;;;;;;5.10;2.35;;;;;;;;;;5056863;28;20461;-85
2022/05/20 07:46:32;;;;;;;3.65;2.38;;;;;;;;;;5074656;28;20028;-85
2022/05/20 07:48:58;;;;;;;6.13;2.67;;;;;;;;;;5074293;28;20112;-84
2022/05/20 07:51:25;;;;;;;6.28;2.60;;;;;;;;;;5074128;28;20024;-84
2022/05/20 07:54:00;;;;;;;4.57;2.90;;;;;;;;;;5078822;28;20091;-86
2022/05/20 07:56:35;;;;;;;5.25;2.45;;;;;;;;;;5058265;28;20030;-84
2022/05/20 07:59:09;;;;;;;6.32;2.75;;;;;;;;;;5075418;28;20029;-83
2022/05/20 08:01:39;;;;;;;4.15;2.47;;;;;;;;;;5084959;28;20340;-84
2022/05/20 08:06:57;;;;;;;6.10;2.55;;;;;;;;;;5054479;28;20028;-84
2022/05/20 08:09:23;;;;;;;8.55;2.60;;;;;;;;;;5053683;28;20486;-82
2022/05/20 08:11:48;;;;;;;13.30;2.60;;;;;;;;;;5052150;28;20055;-83
2022/05/20 08:14:13;;;;;;;5.70;2.58;;;;;;;;;;5050140;28;20111;-83
2022/05/20 08:16:39;;;;;;;6.88;2.28;;;;;;;;;;5081849;28;20020;-84
2022/05/20 08:19:04;;;;;;;7.78;2.50;;;;;;;;;;5056126;28;20466;-85
2022/05/20 08:21:31;;;;;;;3.22;2.33;;;;;;;;;;5085059;28;20024;-83
2022/05/20 08:23:56;;;;;;;4.85;2.45;;;;;;;;;;5095325;28;20105;-85
2022/05/20 08:26:21;;;;;;;4.22;2.60;;;;;;;;;;5075298;28;20029;-85
2022/05/20 08:28:48;;;;;;;4.57;2.70;;;;;;;;;;5067273;28;20040;-85
2022/05/20 08:31:14;;;;;;;8.25;2.53;;;;;;;;;;5075070;28;20024;-85
2022/05/20 08:33:40;;;;;;;5.75;2.90;;;;;;;;;;5057278;28;20111;-84
2022/05/20 08:36:05;;;;;;;5.20;2.88;;;;;;;;;;5057313;28;20062;-84
2022/05/20 08:38:31;;;;;;;5.90;3.00;;;;;;;;;;5074263;28;20040;-84
2022/05/20 08:40:58;;;;;;;6.38;2.70;;;;;;;;;;5075020;28;20032;-84
2022/05/20 08:43:32;;;;;;;5.25;3.35;;;;;;;;;;5074708;28;20032;-84
2022/05/20 08:49:22;;;;;;;5.63;2.40;;;;;;;;;;5064942;28;20031;-87
2022/05/20 08:51:53;;;;;;;5.57;2.67;;;;;;;;;;5074476;28;20059;-84
2022/05/20 08:54:19;;;;;;;8.27;2.97;;;;;;;;;;5084775;28;20094;-84
2022/05/20 08:56:46;;;;;;;3.67;2.50;;;;;;;;;;5098540;28;20063;-85
2022/05/20 08:59:17;;;;;;;5.45;2.70;;;;;;;;;;5099744;28;20122;-84
2022/05/20 09:01:51;;;;;;;9.98;2.97;;;;;;;;;;5102753;28;20063;-86
2022/05/20 09:04:22;;;;;;;8.45;2.72;;;;;;;;;;5099249;28;20027;-86
2022/05/20 09:07:09;;;;;;;4.97;2.33;;;;;;;;;;5089031;28;20145;-84
2022/05/20 09:09:48;;;;;;;5.75;3.00;;;;;;;;;;5078807;28;20024;-83
2022/05/20 09:12:33;;;;;;;4.97;2.50;;;;;;;;;;5079037;28;20028;-86
2022/05/20 09:17:46;;;;;;;8.75;3.15;;;;;;;;;;5070459;28;20397;-87
2022/05/20 09:20:17;;;;;;;5.93;2.85;;;;;;;;;;5077655;28;20111;-85
2022/05/20 09:22:54;;;;;;;5.13;2.92;;;;;;;;;;5060026;28;20078;-83
2022/05/20 09:25:23;;;;;;;5.32;2.40;;;;;;;;;;5078406;28;20186;-85
2022/05/20 09:27:51;;;;;;;6.88;3.47;;;;;;;;;;5077117;28;20029;-85
2022/05/20 09:30:23;;;;;;;4.53;2.65;;;;;;;;;;5086544;28;20020;-86
2022/05/20 09:33:14;;;;;;;5.70;2.70;;;;;;;;;;5098320;28;20033;-87
2022/05/20 09:35:39;;;;;;;6.45;2.78;;;;;;;;;;5068813;28;20482;-85
2022/05/20 09:38:25;;;;;;;7.15;2.63;;;;;;;;;;5076534;28;20103;-87
2022/05/20 09:40:51;;;;;;;4.47;2.60;;;;;;;;;;5071461;28;20023;-85
2022/05/20 09:43:29;;;;;;;9.20;3.10;;;;;;;;;;5089886;28;20017;-87
2022/05/20 09:45:58;;;;;;;3.10;2.47;;;;;;;;;;5067329;28;20035;-85
2022/05/20 09:48:49;;;;;;;5.72;2.80;;;;;;;;;;5060273;28;20021;-85
2022/05/20 09:51:16;;;;;;;5.78;2.80;;;;;;;;;;5079869;28;20039;-85
2022/05/20 09:53:57;;;;;;;4.93;2.90;;;;;;;;;;5076212;28;20092;-85
2022/05/20 09:56:28;;;;;;;6.20;2.72;;;;;;;;;;5084340;28;20081;-84
2022/05/20 09:59:06;;;;;;;;;;;;;;;;;;5072901;28;20115;-85
2022/05/20 10:01:32;;;;;;;8.85;2.72;;;;;;;;;;5077545;28;20293;-84
2022/05/20 10:04:03;;;;;;;5.38;3.03;;;;;;;;;;5076169;28;20498;-83
2022/05/20 10:06:35;;;;;;;5.13;3.00;;;;;;;;;;5084378;28;20046;-86
2022/05/20 10:09:35;;;;;;;8.70;3.42;;;;;;;;;;5095998;28;20038;-85
2022/05/20 10:12:28;;;;;;;5.35;3.00;;;;;;;;;;5096078;28;20030;-85
2022/05/20 10:15:01;;;;;;;3.92;2.70;;;;;;;;;;5094999;28;20113;-85
2022/05/20 10:17:38;;;;;;;5.72;2.70;;;;;;;;;;5061295;28;20020;-84
2022/05/20 10:20:11;;;;;;;6.22;2.70;;;;;;;;;;5078499;28;20477;-85
2022/05/20 10:22:56;;;;;;;7.55;2.70;;;;;;;;;;5077536;28;20020;-86
2022/05/20 10:25:58;;;;;;;6.10;2.95;;;;;;;;;;5078188;28;20032;-85
2022/05/20 10:34:19;;;;;;;6.55;2.80;;;;;;;;;;5077008;28;20079;-87
2022/05/20 10:36:56;;;;;;;9.30;3.10;;;;;;;;;;5090058;28;20362;-86
2022/05/20 10:39:39;;;;;;;8.40;3.47;;;;;;;;;;5098925;28;20031;-85
2022/05/20 10:42:26;;;;;;;8.57;2.92;;;;;;;;;;5098353;28;20028;-86
2022/05/20 10:48:34;;;;;;;4.25;2.70;;;;;;;;;;5058050;28;20055;-86
2022/05/20 10:51:19;;;;;;;9.82;2.63;;;;;;;;;;5040999;28;20043;-87
2022/05/20 10:53:56;;;;;;;5.38;2.17;;;;;;;;;;5078480;28;20374;-85
2022/05/20 10:56:59;;;;;;;6.32;2.45;;;;;;;;;;5077618;28;20100;-87
2022/05/20 10:59:59;;;;;;;5.35;2.42;;;;;;;;;;5078389;28;20021;-86
2022/05/20 11:02:53;;;;;;;4.28;2.80;;;;;;;;;;5067157;28;20409;-86
2022/05/20 11:05:22;;;;;;;6.18;2.90;;;;;;;;;;5087624;28;20035;-87
2022/05/20 11:08:01;;;;;;;7.32;3.08;;;;;;;;;;5091327;28;20024;-85
2022/05/20 11:10:34;;;;;;;9.13;3.22;;;;;;;;;;5078125;28;20025;-86
2022/05/20 11:13:02;;;;;;;7.93;2.92;;;;;;;;;;5077403;28;20016;-86
2022/05/20 11:15:38;;;;;;;13.25;3.75;;;;;;;;;;5078057;28;20050;-88
2022/05/20 11:18:24;;;;;;;12.05;3.40;;;;;;;;;;5070619;28;20032;-87
2022/05/20 11:21:01;;;;;;;5.50;3.30;;;;;;;;;;5056800;28;20177;-87
2022/05/20 11:23:58;;;;;;;8.75;3.50;;;;;;;;;;5089180;28;20024;-88
2022/05/20 11:26:36;;;;;;;4.90;3.33;;;;;;;;;;5077136;28;20029;-86
2022/05/20 11:29:20;;;;;;;8.07;3.45;;;;;;;;;;5081153;28;20020;-84
2022/05/20 11:32:00;;;;;;;6.13;3.33;;;;;;;;;;5089246;28;20027;-87
2022/05/20 11:34:26;;;;;;;5.23;3.03;;;;;;;;;;5070778;28;20039;-86
2022/05/20 11:37:09;;;;;;;11.27;3.10;;;;;;;;;;5054028;28;20056;-87
2022/05/20 11:40:03;;;;;;;5.97;3.25;;;;;;;;;;5058990;28;20027;-86
2022/05/20 11:42:57;;;;;;;7.45;3.08;;;;;;;;;;5073300;28;20081;-86
2022/05/20 11:45:46;;;;;;;6.00;3.13;;;;;;;;;;5042812;28;20479;-85
2022/05/20 11:48:59;;;;;;;12.57;3.47;;;;;;;;;;5059852;28;20115;-86
2022/05/20 11:51:43;;;;;;;6.95;2.92;;;;;;;;;;5027188;28;20166;-84
2022/05/20 11:54:24;;;;;;;7.55;3.20;;;;;;;;;;5075658;28;20033;-84
2022/05/20 11:57:06;;;;;;;12.53;3.10;;;;;;;;;;5057599;28;20660;-85
2022/05/20 11:59:41;;;;;;;10.15;3.63;;;;;;;;;;5056322;28;20131;-84
2022/05/20 12:02:10;;;;;;;8.68;3.10;;;;;;;;;;5079893;28;20035;-87
2022/05/20 12:04:39;;;;;;;4.78;3.30;;;;;;;;;;5078137;28;20016;-85
2022/05/20 12:07:09;;;;;;;9.68;3.60;;;;;;;;;;5072437;28;20039;-85
2022/05/20 12:09:34;;;;;;;4.55;2.90;;;;;;;;;;5083996;28;20024;-86
2022/05/20 12:12:09;;;;;;;5.68;3.40;;;;;;;;;;5076445;28;20051;-86
2022/05/20 12:14:53;;;;;;;8.80;3.30;;;;;;;;;;5076991;28;20052;-86
2022/05/20 12:17:35;;;;;;;9.80;3.20;;;;;;;;;;5083320;28;20017;-86
2022/05/20 12:25:52;;;;;;;8.23;3.20;;;;;;;;;;5065264;28;20055;-87
2022/05/20 12:28:23;;;;;;;5.85;3.40;;;;;;;;;;5066717;28;20020;-85
2022/05/20 12:31:12;;;;;;;8.45;3.00;;;;;;;;;;5077813;28;20023;-87
2022/05/20 12:33:59;;;;;;;6.10;2.97;;;;;;;;;;5077678;28;20036;-86
2022/05/20 12:36:30;;;;;;;5.40;3.17;;;;;;;;;;5099490;28;20049;-87
2022/05/20 12:39:07;;;;;;;7.45;3.22;;;;;;;;;;5092116;28;20024;-86
2022/05/20 12:41:38;;;;;;;5.57;2.95;;;;;;;;;;5100702;28;20044;-87
2022/05/20 12:44:16;;;;;;;6.32;2.85;;;;;;;;;;5071685;28;20398;-87
2022/05/20 12:46:53;;;;;;;10.02;3.10;;;;;;;;;;5056171;28;20051;-87
2022/05/20 12:49:21;;;;;;;6.82;2.88;;;;;;;;;;5086123;28;20576;-85
2022/05/20 12:51:50;;;;;;;5.25;2.92;;;;;;;;;;5062375;28;20052;-84
2022/05/20 12:54:22;;;;;;;8.75;2.80;;;;;;;;;;5075489;28;20073;-86
2022/05/20 12:56:53;;;;;;;10.43;3.13;;;;;;;;;;5083024;28;20111;-88
2022/05/20 12:59:21;;;;;;;3.63;2.80;;;;;;;;;;5058108;28;20028;-86
2022/05/20 13:01:53;;;;;;;5.53;2.60;;;;;;;;;;5075881;28;20109;-87
2022/05/20 13:04:20;;;;;;;7.32;2.55;;;;;;;;;;5076182;28;20042;-87
2022/05/20 13:06:47;;;;;;;9.05;2.75;;;;;;;;;;5077966;28;20035;-87
2022/05/20 13:09:21;;;;;;;7.93;2.80;;;;;;;;;;5087783;28;20478;-89
2022/05/20 13:11:51;;;;;;;8.43;2.58;;;;;;;;;;5052482;28;20055;-86
2022/05/20 13:14:19;;;;;;;8.05;2.63;;;;;;;;;;5067749;28;20020;-87
2022/05/20 13:16:48;;;;;;;8.90;2.85;;;;;;;;;;5068793;28;20025;-87
2022/05/20 13:19:16;;;;;;;3.42;2.33;;;;;;;;;;5074870;28;20059;-85
2022/05/20 13:21:53;;;;;;;4.97;2.40;;;;;;;;;;5061123;28;20023;-84
2022/05/20 13:24:25;;;;;;;4.70;2.60;;;;;;;;;;5077482;28;20024;-87
2022/05/20 13:27:21;;;;;;;8.43;2.50;;;;;;;;;;5071182;28;20017;-85
2022/05/20 13:29:48;;;;;;;5.68;2.80;;;;;;;;;;5075326;28;20119;-88
2022/05/20 13:32:29;;;;;;;7.10;2.15;;;;;;;;;;5072135;28;20156;-85
2022/05/20 13:34:57;;;;;;;4.22;2.35;;;;;;;;;;5056098;28;20025;-84
2022/05/20 13:37:37;;;;;;;6.88;2.30;;;;;;;;;;5082111;28;20102;-86
2022/05/20 13:40:13;;;;;;;7.55;2.42;;;;;;;;;;5077375;28;20113;-84
2022/05/20 13:42:42;;;;;;;7.47;2.40;;;;;;;;;;5058719;28;20478;-85
2022/05/20 13:45:12;;;;;;;8.90;2.38;;;;;;;;;;5059848;28;20398;-86
2022/05/20 13:50:24;;;;;;;7.00;2.28;;;;;;;;;;5098685;28;20030;-85
2022/05/20 13:52:50;;;;;;;8.88;2.58;;;;;;;;;;5081545;28;20070;-84
2022/05/20 13:55:17;;;;;;;8.18;2.53;;;;;;;;;;5060427;28;20029;-84
2022/05/20 13:57:46;;;;;;;7.57;2.60;;;;;;;;;;5078048;28;20444;-83
2022/05/20 14:00:27;;;;;;;6.93;2.40;;;;;;;;;;5078628;28;20016;-85
2022/05/20 14:03:25;;;;;;;6.72;2.65;;;;;;;;;;5079653;28;20016;-85
2022/05/20 14:05:57;;;;;;;6.53;2.22;;;;;;;;;;5082876;28;20115;-85
2022/05/20 14:08:24;;;;;;;7.68;2.55;;;;;;;;;;5077288;28;20060;-84
2022/05/20 14:10:53;;;;;;;10.07;2.92;;;;;;;;;;5076275;28;20048;-85
2022/05/20 14:13:25;;;;;;;9.82;2.75;;;;;;;;;;5063941;28;20048;-84
2022/05/20 14:15:59;;;;;;;5.75;2.30;;;;;;;;;;5075281;28;20032;-86
2022/05/20 14:18:34;;;;;;;8.23;2.80;;;;;;;;;;5075419;28;20403;-84
2022/05/20 14:21:02;;;;;;;4.00;2.35;;;;;;;;;;5077450;28;20083;-85
2022/05/20 14:23:33;;;;;;;6.20;2.30;;;;;;;;;;5075508;28;20482;-86
2022/05/20 14:26:03;;;;;;;3.35;2.22;;;;;;;;;;5077111;28;20032;-86
2022/05/20 14:28:41;;;;;;;10.93;3.30;;;;;;;;;;5060483;28;20504;-86
2022/05/20 14:31:17;;;;;;;7.03;3.20;;;;;;;;;;5058179;28;20028;-84
2022/05/20 14:33:48;;;;;;;6.68;2.83;;;;;;;;;;5066620;28;20078;-86
2022/05/20 14:36:14;;;;;;;7.93;3.20;;;;;;;;;;5081939;28;20097;-86
2022/05/20 14:38:46;;;;;;;10.90;2.85;;;;;;;;;;5058697;28;20261;-85
2022/05/20 14:41:17;;;;;;;5.00;2.85;;;;;;;;;;5078335;28;20029;-86
2022/05/20 14:43:56;;;;;;;4.68;2.88;;;;;;;;;;5078215;28;20021;-84
2022/05/20 14:49:25;;;;;;;10.32;3.22;;;;;;;;;;5074568;28;20034;-84
2022/05/20 14:51:57;;;;;;;10.80;3.00;;;;;;;;;;5077484;28;20029;-84
2022/05/20 14:54:34;;;;;;;8.88;3.83;;;;;;;;;;5089934;28;20020;-84
2022/05/20 14:57:35;;;;;;;10.27;2.67;;;;;;;;;;5057801;28;20032;-83
2022/05/20 15:00:19;;;;;;;4.65;2.80;;;;;;;;;;5066258;28;20025;-84
2022/05/20 15:02:46;;;;;;;6.82;2.92;;;;;;;;;;5081188;28;20466;-84
2022/05/20 15:05:12;;;;;;;6.20;3.05;;;;;;;;;;5086246;28;20043;-84
2022/05/20 15:07:39;;;;;;;11.85;3.15;;;;;;;;;;5086210;28;20378;-84
2022/05/20 15:10:12;;;;;;;9.85;2.70;;;;;;;;;;5103772;28;20024;-85
2022/05/20 15:12:38;;;;;;;7.60;2.92;;;;;;;;;;5085497;28;20078;-85
2022/05/20 15:15:04;;;;;;;7.05;3.00;;;;;;;;;;5085220;28;20024;-84
2022/05/20 15:17:29;;;;;;;5.35;2.92;;;;;;;;;;5074594;28;20032;-84
2022/05/20 15:19:54;;;;;;;5.00;2.63;;;;;;;;;;5063073;28;20017;-85
2022/05/20 15:22:20;;;;;;;8.23;2.45;;;;;;;;;;5066367;28;20020;-84
2022/05/20 15:24:47;;;;;;;5.07;2.75;;;;;;;;;;5084104;28;20020;-85
2022/05/20 15:27:31;;;;;;;9.43;3.17;;;;;;;;;;5063483;28;20035;-84
2022/05/20 15:29:56;;;;;;;7.95;2.72;;;;;;;;;;5065287;28;20036;-83
2022/05/20 15:35:06;;;;;;;9.80;2.70;;;;;;;;;;5078801;28;20121;-83
2022/05/20 15:37:40;;;;;;;10.73;2.75;;;;;;;;;;5080846;28;20036;-84
2022/05/20 15:40:12;;;;;;;7.57;2.75;;;;;;;;;;5076997;28;20031;-82
2022/05/20 15:42:44;;;;;;;5.30;2.78;;;;;;;;;;5081411;28;20107;-83
2022/05/20 15:45:14;;;;;;;7.32;3.00;;;;;;;;;;5063425;28;20444;-84
2022/05/20 15:47:39;;;;;;;8.90;2.90;;;;;;;;;;5082149;28;20082;-85
2022/05/20 15:50:06;;;;;;;6.90;2.25;;;;;;;;;;5062710;28;20036;-86
2022/05/20 15:52:37;;;;;;;8.18;2.80;;;;;;;;;;5068164;28;20043;-88
2022/05/20 15:55:08;;;;;;;;;;;;;;;;;;5083205;28;20020;-83
2022/05/20 15:57:38;;;;;;;15.80;3.47;;;;;;;;;;5063608;28;19919;-87
2022/05/20 16:00:06;;;;;;;12.27;2.78;;;;;;;;;;5062274;28;20051;-87